Time;durP1;ratioP1;P1;durP2;ratioP2;P2;SDS_P1;SDS_P2;PMS_P1;PMS_P2;Temp;Humidity;BMP_temperature;BMP_pressure;BME280_temperature;BME280_humidity;BME280_pressure;Samples;Min_cycle;Max_cycle;Signal;HPM_P1;HPM_P2
2022/04/22 00:02:12;;;;;;;5.15;3.42;;;5.50;99.90;;;;;;5041939;28;20032;-63
2022/04/22 00:04:38;;;;;;;9.98;4.00;;;5.40;99.90;;;;;;5030213;28;20044;-63
2022/04/22 00:07:04;;;;;;;6.68;3.80;;;5.40;99.90;;;;;;5034979;28;20053;-63
2022/04/22 00:09:30;;;;;;;6.45;3.50;;;5.40;99.90;;;;;;5049289;28;20111;-64
2022/04/22 00:11:55;;;;;;;7.13;2.90;;;5.30;99.90;;;;;;5028452;28;20156;-64
2022/04/22 00:14:21;;;;;;;11.18;4.03;;;5.30;99.90;;;;;;5049121;28;20086;-64
2022/04/22 00:16:46;;;;;;;9.05;3.88;;;5.20;99.90;;;;;;5038412;28;20112;-63
2022/04/22 00:19:12;;;;;;;5.43;3.65;;;5.20;99.90;;;;;;5030338;28;20029;-64
2022/04/22 00:21:37;;;;;;;12.38;4.63;;;5.20;99.90;;;;;;5046684;28;20032;-63
2022/04/22 00:24:03;;;;;;;9.98;3.92;;;5.20;99.90;;;;;;5030331;28;20481;-64
2022/04/22 00:26:28;;;;;;;7.68;3.65;;;5.20;99.90;;;;;;5047140;28;20047;-63
2022/04/22 00:28:54;;;;;;;7.32;3.67;;;5.10;99.90;;;;;;5030002;28;20529;-64
2022/04/22 00:31:19;;;;;;;9.27;3.40;;;5.00;99.90;;;;;;5046745;28;20420;-63
2022/04/22 00:33:45;;;;;;;8.57;3.33;;;4.90;99.90;;;;;;5049054;28;20039;-63
2022/04/22 00:36:10;;;;;;;5.55;3.33;;;4.80;99.90;;;;;;5033169;28;20033;-64
2022/04/22 00:38:36;;;;;;;5.70;3.53;;;4.70;99.90;;;;;;5049166;28;20059;-63
2022/04/22 00:41:01;;;;;;;7.72;2.90;;;4.60;99.90;;;;;;5031960;28;20493;-63
2022/04/22 00:43:27;;;;;;;5.97;2.50;;;4.40;99.90;;;;;;5049267;28;20479;-63
2022/04/22 00:45:54;;;;;;;6.88;3.65;;;4.40;99.90;;;;;;5030426;28;20214;-63
2022/04/22 00:48:21;;;;;;;6.63;3.88;;;4.30;99.90;;;;;;5048981;28;20025;-63
2022/04/22 00:50:47;;;;;;;8.00;3.65;;;4.30;99.90;;;;;;5037702;28;20041;-63
2022/04/22 00:53:14;;;;;;;9.05;3.25;;;4.20;99.90;;;;;;5049116;28;20021;-63
2022/04/22 00:55:44;;;;;;;8.10;3.70;;;4.20;99.90;;;;;;5028093;28;20503;-63
2022/04/22 00:58:11;;;;;;;7.70;3.58;;;4.20;99.90;;;;;;5049048;28;20064;-63
2022/04/22 01:00:38;;;;;;;7.38;4.00;;;4.20;99.90;;;;;;5024176;28;20121;-62
2022/04/22 01:03:05;;;;;;;9.30;4.15;;;4.20;99.90;;;;;;5049213;28;20087;-63
2022/04/22 01:11:00;;;;;;;8.00;3.00;;;4.20;99.90;;;;;;5030918;28;20079;-63
2022/04/22 01:13:26;;;;;;;8.20;3.13;;;4.10;99.90;;;;;;5048857;28;20029;-64
2022/04/22 01:15:52;;;;;;;8.43;3.75;;;4.10;99.90;;;;;;5029905;28;20022;-63
2022/04/22 01:18:17;;;;;;;5.28;2.83;;;4.10;99.90;;;;;;5048537;28;20029;-64
2022/04/22 01:20:43;;;;;;;4.20;2.80;;;4.10;99.90;;;;;;5028672;28;20468;-63
2022/04/22 01:23:09;;;;;;;8.05;3.72;;;4.20;99.90;;;;;;5048755;28;20032;-63
2022/04/22 01:25:35;;;;;;;12.20;4.47;;;4.20;99.90;;;;;;5027383;28;20416;-63
2022/04/22 01:28:02;;;;;;;6.22;3.20;;;4.30;99.90;;;;;;5048284;28;20064;-64
2022/04/22 01:30:27;;;;;;;5.00;2.60;;;4.30;99.90;;;;;;5028925;28;20022;-64
2022/04/22 01:32:54;;;;;;;5.90;2.60;;;4.30;99.90;;;;;;5026959;28;20039;-63
2022/04/22 01:35:21;;;;;;;7.25;3.33;;;4.30;99.90;;;;;;5047698;28;20029;-63
2022/04/22 01:37:47;;;;;;;5.53;2.80;;;4.30;99.90;;;;;;5027056;28;20393;-63
2022/04/22 01:40:13;;;;;;;7.85;4.53;;;4.40;99.90;;;;;;5047706;28;20032;-63
2022/04/22 01:42:39;;;;;;;6.88;3.70;;;4.30;99.90;;;;;;5026741;28;20030;-63
2022/04/22 01:45:06;;;;;;;4.50;2.75;;;4.40;99.90;;;;;;5046849;28;20396;-63
2022/04/22 01:47:31;;;;;;;8.27;3.15;;;4.30;99.90;;;;;;5027018;28;20053;-64
2022/04/22 01:49:57;;;;;;;7.43;3.35;;;4.20;99.90;;;;;;5043282;28;20496;-64
2022/04/22 01:52:23;;;;;;;6.07;3.38;;;4.20;99.90;;;;;;5041403;28;20040;-63
2022/04/22 01:54:54;;;;;;;6.55;3.35;;;4.20;99.90;;;;;;5028607;28;20082;-65
2022/04/22 01:57:19;;;;;;;8.48;3.55;;;4.30;99.90;;;;;;5026277;28;20524;-64
2022/04/22 01:59:46;;;;;;;8.50;4.82;;;4.30;99.90;;;;;;5035356;28;20022;-63
2022/04/22 02:02:13;;;;;;;5.38;3.35;;;4.30;99.90;;;;;;5039858;28;20036;-64
2022/04/22 02:04:38;;;;;;;6.93;2.97;;;4.30;99.90;;;;;;5028232;28;20198;-63
2022/04/22 02:07:04;;;;;;;6.38;3.08;;;4.40;99.90;;;;;;5033048;28;20124;-64
2022/04/22 02:09:30;;;;;;;5.93;3.60;;;4.40;99.90;;;;;;5047287;28;20025;-64
2022/04/22 02:11:58;;;;;;;6.75;4.03;;;4.40;99.90;;;;;;5026497;28;20043;-64
2022/04/22 02:14:28;;;;;;;5.18;3.03;;;4.50;99.90;;;;;;5047582;28;20075;-64
2022/04/22 02:16:54;;;;;;;8.18;4.35;;;4.50;99.90;;;;;;5037033;28;20033;-64
2022/04/22 02:19:19;;;;;;;11.07;4.45;;;4.60;99.90;;;;;;5028253;28;20040;-64
2022/04/22 02:21:45;;;;;;;11.50;3.75;;;4.60;99.90;;;;;;5045142;28;20029;-63
2022/04/22 02:24:11;;;;;;;7.95;3.83;;;4.70;99.90;;;;;;5028463;28;20026;-64
2022/04/22 02:29:21;;;;;;;11.13;4.05;;;4.80;99.90;;;;;;5028186;28;20041;-64
2022/04/22 02:31:48;;;;;;;8.20;4.35;;;4.80;99.90;;;;;;5045234;28;20028;-63
2022/04/22 02:34:13;;;;;;;7.85;4.13;;;4.80;99.90;;;;;;5028305;28;20166;-63
2022/04/22 02:36:41;;;;;;;10.00;4.80;;;4.90;99.90;;;;;;5044921;28;20033;-62
2022/04/22 02:39:07;;;;;;;11.95;6.20;;;4.90;99.90;;;;;;5028221;28;20059;-63
2022/04/22 02:47:00;;;;;;;12.98;6.47;;;4.90;99.90;;;;;;5029841;28;20805;-63
2022/04/22 02:49:26;;;;;;;10.02;4.95;;;4.90;99.90;;;;;;5028255;28;20022;-62
2022/04/22 02:51:51;;;;;;;9.40;4.95;;;4.90;99.90;;;;;;5044999;28;20035;-63
2022/04/22 02:54:17;;;;;;;13.18;5.10;;;4.80;99.90;;;;;;5027854;28;20061;-63
2022/04/22 02:56:42;;;;;;;10.88;4.93;;;4.70;99.90;;;;;;5046594;28;20032;-63
2022/04/22 02:59:08;;;;;;;16.73;5.63;;;4.70;99.90;;;;;;5031948;28;20029;-59
2022/04/22 03:01:34;;;;;;;10.50;4.88;;;4.70;99.90;;;;;;5043261;28;20032;-63
2022/04/22 03:04:00;;;;;;;9.52;5.05;;;4.60;99.90;;;;;;5031575;28;20424;-63
2022/04/22 03:06:26;;;;;;;9.82;5.75;;;4.60;99.90;;;;;;5048467;28;20450;-63
2022/04/22 03:08:55;;;;;;;10.82;4.85;;;4.50;99.90;;;;;;5051220;28;20033;-69
2022/04/22 03:11:21;;;;;;;9.32;4.47;;;4.50;99.90;;;;;;5035715;28;20029;-70
2022/04/22 03:13:51;;;;;;;11.25;5.00;;;4.50;99.90;;;;;;5051090;28;20025;-70
2022/04/22 03:16:23;;;;;;;9.20;4.28;;;4.50;99.90;;;;;;5034877;28;20025;-70
2022/04/22 03:18:48;;;;;;;14.10;5.60;;;4.50;99.90;;;;;;5050907;28;20079;-70
2022/04/22 03:21:14;;;;;;;10.20;4.55;;;4.50;99.90;;;;;;5035289;28;20309;-71
2022/04/22 03:23:39;;;;;;;12.73;5.10;;;4.50;99.90;;;;;;5050739;28;20110;-70
2022/04/22 03:26:05;;;;;;;8.18;4.50;;;4.50;99.90;;;;;;5033841;28;20079;-70
2022/04/22 03:28:31;;;;;;;9.27;4.40;;;4.50;99.90;;;;;;5050861;28;20113;-71
2022/04/22 03:30:56;;;;;;;9.82;5.15;;;4.50;99.90;;;;;;5032268;28;20845;-70
2022/04/22 03:33:21;;;;;;;7.68;4.82;;;4.40;99.90;;;;;;5050700;28;20447;-70
2022/04/22 03:35:51;;;;;;;11.63;5.20;;;4.30;99.90;;;;;;5031208;28;20028;-70
2022/04/22 03:38:20;;;;;;;11.52;5.10;;;4.20;99.90;;;;;;5050711;28;20021;-71
2022/04/22 03:40:47;;;;;;;9.50;4.68;;;4.10;99.90;;;;;;5030732;28;20029;-71
2022/04/22 03:43:13;;;;;;;7.18;4.28;;;4.00;99.90;;;;;;5050559;28;20028;-71
2022/04/22 03:45:39;;;;;;;12.70;4.85;;;3.90;99.90;;;;;;5029513;28;20168;-70
2022/04/22 03:48:11;;;;;;;10.18;5.35;;;3.90;99.90;;;;;;5050313;28;20033;-71
2022/04/22 03:50:37;;;;;;;14.75;4.63;;;3.80;99.90;;;;;;5019311;28;20045;-69
2022/04/22 03:53:04;;;;;;;10.13;5.50;;;3.80;99.90;;;;;;5050285;28;20040;-71
2022/04/22 03:55:30;;;;;;;9.23;4.70;;;3.70;99.90;;;;;;5030939;28;20061;-71
2022/04/22 03:58:11;;;;;;;9.30;5.60;;;3.70;99.90;;;;;;5047641;28;20032;-71
2022/04/22 04:00:42;;;;;;;11.77;5.63;;;3.70;99.90;;;;;;5033466;28;20078;-72
2022/04/22 04:03:09;;;;;;;8.55;3.95;;;3.60;99.90;;;;;;5050284;28;20329;-71
2022/04/22 04:05:35;;;;;;;13.02;5.43;;;3.70;99.90;;;;;;5028709;28;20440;-70
2022/04/22 04:08:01;;;;;;;10.75;5.88;;;3.70;99.90;;;;;;5049228;28;20041;-71
2022/04/22 04:15:57;;;;;;;14.18;5.57;;;4.00;99.90;;;;;;5030976;28;20079;-71
2022/04/22 04:18:23;;;;;;;11.23;5.00;;;4.10;99.90;;;;;;5049912;28;20033;-72
2022/04/22 04:23:33;;;;;;;10.25;5.60;;;4.30;99.90;;;;;;5050156;28;20036;-72
2022/04/22 04:25:59;;;;;;;11.32;5.40;;;4.50;99.90;;;;;;5031481;28;20028;-72
2022/04/22 04:28:27;;;;;;;8.75;5.10;;;4.70;99.90;;;;;;5049751;28;20112;-71
2022/04/22 04:30:54;;;;;;;8.18;4.72;;;4.80;99.90;;;;;;5030675;28;20080;-71
2022/04/22 04:33:21;;;;;;;12.57;5.38;;;4.90;99.90;;;;;;5049531;28;20116;-72
2022/04/22 04:35:50;;;;;;;11.65;4.72;;;5.20;99.90;;;;;;5029878;28;20109;-72
2022/04/22 04:38:16;;;;;;;7.95;4.65;;;5.40;99.90;;;;;;5049511;28;20112;-72
2022/04/22 04:40:43;;;;;;;10.70;4.78;;;5.50;99.90;;;;;;5029476;28;20032;-71
2022/04/22 04:43:08;;;;;;;15.00;6.15;;;5.60;99.90;;;;;;5049488;28;20043;-72
2022/04/22 04:45:35;;;;;;;11.93;5.50;;;5.80;99.90;;;;;;5028211;28;20029;-71
2022/04/22 04:48:01;;;;;;;10.00;5.85;;;5.90;99.90;;;;;;5049110;28;20029;-72
2022/04/22 04:50:27;;;;;;;14.63;7.03;;;6.00;99.90;;;;;;5037333;28;20045;-72
2022/04/22 04:52:52;;;;;;;11.23;6.07;;;6.00;99.90;;;;;;5027983;28;20071;-71
2022/04/22 04:55:18;;;;;;;9.68;5.93;;;6.10;99.90;;;;;;5048238;28;20029;-71
2022/04/22 04:57:44;;;;;;;11.35;5.88;;;6.10;99.90;;;;;;5028087;28;20072;-71
2022/04/22 05:00:10;;;;;;;10.15;6.22;;;6.20;99.90;;;;;;5036064;28;20056;-72
2022/04/22 05:02:37;;;;;;;12.77;6.05;;;6.30;99.90;;;;;;5029695;28;20029;-72
2022/04/22 05:05:05;;;;;;;15.40;6.57;;;6.40;99.90;;;;;;5048280;28;20021;-72
2022/04/22 05:07:30;;;;;;;15.10;6.82;;;6.50;99.90;;;;;;5027460;28;20034;-72
2022/04/22 05:09:56;;;;;;;13.38;6.47;;;6.70;99.90;;;;;;5047905;28;20033;-71
2022/04/22 05:12:21;;;;;;;12.05;6.72;;;6.80;99.90;;;;;;5027611;28;20488;-72
2022/04/22 05:14:47;;;;;;;9.32;5.72;;;6.90;99.90;;;;;;5048007;28;20033;-72
2022/04/22 05:17:13;;;;;;;10.20;5.63;;;7.00;99.90;;;;;;5027793;28;20025;-72
2022/04/22 05:19:38;;;;;;;10.82;5.65;;;7.20;99.90;;;;;;5046894;28;20017;-69
2022/04/22 05:22:04;;;;;;;8.30;5.25;;;7.30;99.90;;;;;;5027554;28;20489;-70
2022/04/22 05:24:31;;;;;;;10.05;5.75;;;7.50;99.90;;;;;;5047938;28;20017;-70
2022/04/22 05:26:57;;;;;;;8.82;5.60;;;7.60;99.90;;;;;;5026897;28;20077;-69
2022/04/22 05:34:51;;;;;;;8.55;4.85;;;8.10;99.90;;;;;;5008956;28;20156;-71
2022/04/22 05:37:16;;;;;;;9.40;6.13;;;8.40;99.90;;;;;;5031154;28;20501;-71
2022/04/22 05:39:43;;;;;;;7.35;4.53;;;9.30;99.90;;;;;;5047882;28;20044;-71
2022/04/22 05:42:09;;;;;;;15.45;5.75;;;9.70;99.90;;;;;;5026962;28;20120;-70
2022/04/22 05:44:35;;;;;;;8.88;5.03;;;9.90;99.90;;;;;;5047459;28;20060;-70
2022/04/22 05:47:01;;;;;;;9.00;4.95;;;10.00;99.90;;;;;;5026850;28;20092;-70
2022/04/22 05:49:27;;;;;;;7.13;4.55;;;11.10;98.00;;;;;;5047448;28;20403;-69
2022/04/22 05:51:54;;;;;;;7.38;4.57;;;11.40;98.90;;;;;;5037383;28;20048;-70
2022/04/22 05:54:20;;;;;;;8.05;4.65;;;11.80;95.70;;;;;;5028361;28;20473;-71
2022/04/22 05:56:45;;;;;;;7.85;4.82;;;12.70;90.70;;;;;;5045579;28;20048;-70
2022/04/22 05:59:10;;;;;;;9.95;4.68;;;12.10;73.20;;;;;;5028943;28;20026;-69
2022/04/22 06:01:36;;;;;;;7.13;4.28;;;12.90;87.20;;;;;;5038836;28;20029;-71
2022/04/22 06:04:01;;;;;;;8.88;3.97;;;13.30;77.20;;;;;;5028520;28;20040;-71
2022/04/22 06:06:27;;;;;;;11.23;4.82;;;12.90;66.60;;;;;;5045335;28;20071;-72
2022/04/22 06:11:36;;;;;;;9.20;5.65;;;11.90;61.30;;;;;;5023446;28;20090;-72
2022/04/22 06:14:02;;;;;;;8.85;5.15;;;11.30;65.70;;;;;;5028351;28;20132;-72
2022/04/22 06:16:28;;;;;;;10.25;4.57;;;11.10;68.10;;;;;;5045440;28;20025;-72
2022/04/22 06:18:54;;;;;;;7.10;4.35;;;10.60;74.60;;;;;;5047791;28;20032;-71
2022/04/22 06:21:19;;;;;;;7.55;4.50;;;10.50;79.40;;;;;;5032697;28;20068;-72
2022/04/22 06:23:45;;;;;;;10.68;5.03;;;10.30;73.60;;;;;;5047923;28;20029;-72
2022/04/22 06:26:10;;;;;;;10.45;5.68;;;9.90;79.40;;;;;;5031616;28;20168;-72
2022/04/22 06:28:36;;;;;;;9.93;5.80;;;9.60;82.40;;;;;;5047617;28;20029;-72
2022/04/22 06:31:02;;;;;;;9.93;5.00;;;9.30;82.50;;;;;;5031002;28;20025;-72
2022/04/22 06:33:27;;;;;;;13.02;5.93;;;9.20;88.50;;;;;;5051937;28;20742;-71
2022/04/22 06:35:54;;;;;;;8.80;5.95;;;9.00;88.20;;;;;;5033305;28;20033;-71
2022/04/22 06:38:19;;;;;;;7.32;4.93;;;9.10;91.00;;;;;;5051675;28;20024;-72
2022/04/22 06:46:16;;;;;;;11.88;6.20;;;9.40;88.10;;;;;;5035622;28;20036;-72
2022/04/22 06:48:43;;;;;;;10.32;6.80;;;9.40;89.30;;;;;;5051528;28;20152;-72
2022/04/22 06:51:10;;;;;;;12.55;6.30;;;9.50;90.30;;;;;;5034694;28;20041;-72
2022/04/22 06:53:37;;;;;;;11.05;6.25;;;9.60;89.50;;;;;;5051395;28;20044;-72
2022/04/22 06:56:06;;;;;;;11.93;6.15;;;9.70;88.90;;;;;;5033665;28;20056;-72
2022/04/22 06:58:33;;;;;;;14.30;7.05;;;9.90;90.50;;;;;;5051396;28;20060;-72
2022/04/22 07:00:59;;;;;;;8.82;5.57;;;9.90;90.50;;;;;;5025963;28;20051;-59
2022/04/22 07:03:25;;;;;;;8.70;5.47;;;9.90;90.50;;;;;;5051238;28;20400;-62
2022/04/22 07:05:51;;;;;;;11.82;6.13;;;9.80;91.50;;;;;;5032360;28;20025;-61
2022/04/22 07:08:19;;;;;;;12.00;8.02;;;9.70;92.90;;;;;;5050845;28;20111;-62
2022/04/22 07:10:46;;;;;;;14.82;7.65;;;9.60;94.30;;;;;;5031199;28;20116;-61
2022/04/22 07:13:12;;;;;;;13.38;7.90;;;9.50;96.70;;;;;;5051166;28;20044;-61
2022/04/22 07:15:42;;;;;;;11.95;7.20;;;9.40;99.10;;;;;;5029901;28;20029;-61
2022/04/22 07:18:08;;;;;;;13.88;7.88;;;9.40;99.90;;;;;;5050988;28;20025;-62
2022/04/22 07:20:34;;;;;;;12.80;7.22;;;9.40;99.90;;;;;;5029688;28;20107;-62
2022/04/22 07:23:00;;;;;;;10.93;6.90;;;9.30;99.90;;;;;;5050770;28;20057;-62
2022/04/22 07:25:26;;;;;;;13.68;8.02;;;9.40;99.90;;;;;;5031365;28;20526;-62
2022/04/22 07:27:52;;;;;;;12.20;7.00;;;9.30;99.90;;;;;;5029010;28;20038;-62
2022/04/22 07:30:20;;;;;;;10.20;7.22;;;9.30;99.90;;;;;;5049894;28;20032;-62
2022/04/22 07:32:47;;;;;;;11.57;8.30;;;9.40;99.90;;;;;;5029252;28;20036;-62
2022/04/22 07:35:15;;;;;;;13.60;8.73;;;9.50;99.90;;;;;;5050209;28;20120;-62
2022/04/22 07:37:41;;;;;;;11.77;7.90;;;9.40;99.90;;;;;;5029030;28;20036;-62
2022/04/22 07:40:08;;;;;;;13.80;8.15;;;9.40;99.90;;;;;;5049893;28;20490;-62
2022/04/22 07:42:35;;;;;;;12.80;7.72;;;9.50;99.90;;;;;;5028420;28;20446;-62
2022/04/22 07:47:47;;;;;;;10.95;7.22;;;9.60;99.90;;;;;;5027144;28;20567;-62
2022/04/22 07:50:14;;;;;;;16.92;9.10;;;9.80;99.90;;;;;;5043717;28;20049;-63
2022/04/22 07:52:44;;;;;;;12.07;7.43;;;9.90;99.90;;;;;;5045770;28;20028;-63
2022/04/22 07:55:10;;;;;;;14.13;7.93;;;10.10;99.90;;;;;;5030547;28;20112;-63
2022/04/22 07:57:36;;;;;;;11.60;7.10;;;10.30;99.90;;;;;;5030793;28;20224;-63
2022/04/22 08:00:03;;;;;;;14.90;7.95;;;10.40;99.90;;;;;;5038268;28;20026;-63
2022/04/22 08:02:29;;;;;;;14.55;7.68;;;10.50;99.90;;;;;;5044279;28;20507;-63
2022/04/22 08:04:54;;;;;;;13.32;8.07;;;10.60;99.90;;;;;;5030595;28;20037;-62
2022/04/22 08:07:20;;;;;;;15.45;9.38;;;10.80;99.90;;;;;;5032801;28;20378;-63
2022/04/22 08:09:46;;;;;;;13.95;9.73;;;10.90;99.00;;;;;;5049486;28;20037;-62
2022/04/22 08:12:12;;;;;;;15.07;9.07;;;11.00;99.50;;;;;;5028663;28;20105;-62
2022/04/22 08:14:39;;;;;;;11.23;7.18;;;11.20;97.90;;;;;;5049044;28;20037;-62
2022/04/22 08:17:04;;;;;;;12.77;8.60;;;11.50;95.40;;;;;;5028533;28;20037;-63
2022/04/22 08:19:30;;;;;;;14.18;8.80;;;11.70;93.70;;;;;;5049124;28;20029;-63
2022/04/22 08:21:57;;;;;;;14.23;8.80;;;11.90;90.90;;;;;;5028314;28;20429;-62
2022/04/22 08:24:22;;;;;;;12.05;8.38;;;12.10;92.60;;;;;;5049370;28;20029;-62
2022/04/22 08:26:48;;;;;;;15.48;10.65;;;12.20;91.10;;;;;;5038450;28;20047;-62
2022/04/22 08:29:14;;;;;;;17.05;9.50;;;11.90;92.50;;;;;;5030304;28;20228;-62
2022/04/22 08:31:39;;;;;;;15.75;10.68;;;11.80;94.20;;;;;;5046773;28;20155;-62
2022/04/22 08:34:05;;;;;;;15.10;9.93;;;11.80;95.40;;;;;;5030149;28;20040;-63
2022/04/22 08:36:31;;;;;;;18.50;10.55;;;11.80;97.00;;;;;;5046878;28;20408;-63
2022/04/22 08:38:57;;;;;;;18.75;11.93;;;11.70;96.90;;;;;;5029741;28;20182;-62
2022/04/22 08:41:23;;;;;;;15.00;10.95;;;11.70;96.50;;;;;;5047112;28;20032;-62
2022/04/22 08:43:51;;;;;;;17.30;12.00;;;11.80;96.90;;;;;;5049204;28;20021;-62
2022/04/22 08:52:10;;;;;;;18.05;13.20;;;11.90;98.00;;;;;;4998272;28;20053;-63
2022/04/22 08:54:38;;;;;;;18.90;13.40;;;11.90;97.10;;;;;;5023787;28;20041;-63
2022/04/22 08:57:03;;;;;;;19.67;12.27;;;11.80;97.60;;;;;;5027494;28;20520;-62
2022/04/22 08:59:29;;;;;;;22.45;13.45;;;11.90;97.20;;;;;;5021229;28;20091;-62
2022/04/22 09:01:56;;;;;;;16.98;11.63;;;11.80;97.40;;;;;;5038368;28;20029;-62
2022/04/22 09:04:21;;;;;;;17.23;11.13;;;11.80;98.40;;;;;;5029366;28;20025;-63
2022/04/22 09:06:50;;;;;;;14.57;10.48;;;12.00;98.00;;;;;;5046270;28;20500;-62
2022/04/22 09:09:18;;;;;;;14.85;11.30;;;12.10;96.20;;;;;;5028789;28;20616;-63
2022/04/22 09:11:44;;;;;;;18.75;12.63;;;12.30;95.10;;;;;;5046413;28;20512;-62
2022/04/22 09:14:13;;;;;;;20.58;12.52;;;12.30;95.50;;;;;;5029298;28;20022;-63
2022/04/22 09:16:41;;;;;;;15.85;11.30;;;12.50;93.80;;;;;;5046288;28;20036;-63
2022/04/22 09:19:06;;;;;;;16.15;11.15;;;12.80;92.10;;;;;;5029051;28;20030;-62
2022/04/22 09:21:32;;;;;;;17.10;11.32;;;13.10;88.50;;;;;;5046000;28;20039;-63
2022/04/22 09:24:13;;;;;;;18.60;12.35;;;13.40;84.60;;;;;;5011125;28;20266;-62
2022/04/22 09:26:39;;;;;;;20.92;12.80;;;13.40;81.20;;;;;;5035676;28;20033;-63
2022/04/22 09:29:05;;;;;;;16.08;11.07;;;13.40;83.10;;;;;;5029072;28;20091;-62
2022/04/22 09:31:47;;;;;;;15.43;11.05;;;13.50;80.90;;;;;;5045977;28;20025;-63
2022/04/22 09:34:13;;;;;;;15.48;12.02;;;13.50;83.80;;;;;;5008959;28;20025;-63
2022/04/22 09:45:06;;;;;;;15.23;11.02;;;13.40;83.80;;;;;;5028470;28;20076;-63
2022/04/22 09:47:34;;;;;;;19.50;11.63;;;13.30;85.30;;;;;;5023051;28;20424;-62
2022/04/22 09:50:01;;;;;;;15.23;10.75;;;13.10;87.40;;;;;;5043076;28;20123;-63
2022/04/22 09:52:31;;;;;;;14.32;11.00;;;12.90;88.60;;;;;;5042210;28;20033;-62
2022/04/22 09:55:02;;;;;;;18.83;11.50;;;12.80;90.90;;;;;;5028251;28;20164;-62
2022/04/22 09:57:28;;;;;;;14.57;9.57;;;13.00;91.30;;;;;;5038673;28;20051;-62
2022/04/22 09:59:54;;;;;;;15.40;10.90;;;13.20;91.30;;;;;;5047865;28;20029;-62
2022/04/22 10:02:24;;;;;;;15.80;10.48;;;13.20;89.10;;;;;;5027428;28;20034;-61
2022/04/22 10:04:54;;;;;;;21.48;11.00;;;13.20;89.40;;;;;;5028028;28;20033;-61
2022/04/22 10:07:25;;;;;;;17.08;11.30;;;13.20;90.10;;;;;;5025522;28;20049;-61
2022/04/22 10:09:53;;;;;;;14.00;11.25;;;13.10;90.60;;;;;;5028046;28;20025;-61
2022/04/22 10:12:21;;;;;;;18.42;13.10;;;13.00;91.00;;;;;;5026144;28;20025;-60
2022/04/22 10:14:46;;;;;;;16.90;12.45;;;12.90;91.90;;;;;;5028029;28;20021;-60
2022/04/22 10:17:13;;;;;;;14.70;12.10;;;12.80;93.20;;;;;;5026157;28;20573;-61
2022/04/22 10:19:39;;;;;;;18.40;10.88;;;12.80;94.30;;;;;;5027615;28;20025;-60
2022/04/22 10:22:07;;;;;;;18.05;12.65;;;12.80;94.60;;;;;;5026117;28;20440;-61
2022/04/22 10:24:33;;;;;;;20.50;12.90;;;12.80;95.10;;;;;;5027912;28;20018;-60
2022/04/22 10:27:01;;;;;;;20.83;13.63;;;12.80;95.60;;;;;;5025687;28;20045;-61
2022/04/22 10:29:30;;;;;;;17.27;12.52;;;12.70;96.70;;;;;;5028272;28;20094;-60
2022/04/22 10:31:56;;;;;;;18.38;12.88;;;12.70;97.50;;;;;;5025861;28;20270;-60
2022/04/22 10:34:37;;;;;;;17.02;11.13;;;12.70;98.10;;;;;;5027808;28;20272;-61
2022/04/22 10:37:03;;;;;;;17.95;12.68;;;12.80;97.70;;;;;;5026134;28;20401;-60
2022/04/22 10:39:33;;;;;;;19.45;14.80;;;12.80;97.80;;;;;;5027813;28;20041;-61
2022/04/22 10:41:59;;;;;;;23.15;16.15;;;12.80;98.90;;;;;;5025686;28;20039;-60
2022/04/22 10:47:15;;;;;;;23.35;17.42;;;12.70;99.90;;;;;;5026175;28;20133;-61
2022/04/22 10:49:46;;;;;;;23.75;17.75;;;12.60;99.90;;;;;;5027605;28;20029;-60
2022/04/22 10:52:18;;;;;;;24.73;16.38;;;12.60;99.90;;;;;;5026018;28;20412;-60
2022/04/22 10:54:52;;;;;;;27.10;19.83;;;12.70;99.90;;;;;;5027668;28;20068;-60
2022/04/22 10:57:23;;;;;;;27.60;20.13;;;12.70;99.90;;;;;;5025429;28;20037;-60
2022/04/22 11:00:04;;;;;;;27.85;19.50;;;12.60;99.90;;;;;;5047007;28;20082;-60
2022/04/22 11:02:31;;;;;;;27.58;19.75;;;12.60;99.90;;;;;;5015670;28;20038;-60
2022/04/22 11:05:23;;;;;;;26.98;20.25;;;12.60;99.90;;;;;;5046587;28;20115;-60
2022/04/22 11:08:01;;;;;;;27.33;20.50;;;12.60;99.90;;;;;;5024720;28;20404;-60
2022/04/22 11:10:45;;;;;;;28.02;20.05;;;12.40;99.90;;;;;;5008194;28;20069;-61
2022/04/22 11:13:26;;;;;;;26.30;20.50;;;12.40;99.90;;;;;;5007804;28;20030;-60
2022/04/22 11:15:51;;;;;;;29.65;20.33;;;12.40;99.90;;;;;;5028425;28;20036;-60
2022/04/22 11:18:17;;;;;;;26.83;19.63;;;12.30;99.90;;;;;;5049699;28;20025;-61
2022/04/22 11:20:45;;;;;;;29.25;22.63;;;12.30;99.90;;;;;;5031295;28;20040;-60
2022/04/22 11:23:14;;;;;;;35.05;25.40;;;12.30;99.90;;;;;;5050857;28;20485;-60
2022/04/22 11:25:41;;;;;;;29.92;22.83;;;12.20;99.90;;;;;;5030424;28;20428;-60
2022/04/22 11:28:08;;;;;;;34.80;27.17;;;12.10;99.90;;;;;;5050725;28;20110;-60
2022/04/22 11:30:34;;;;;;;36.58;27.05;;;12.00;99.90;;;;;;5029649;28;20036;-60
2022/04/22 11:33:26;;;;;;;37.63;27.60;;;11.80;99.90;;;;;;5050540;28;20107;-61
2022/04/22 11:35:54;;;;;;;40.28;28.63;;;11.60;99.90;;;;;;5014843;28;20111;-60
2022/04/22 11:38:19;;;;;;;43.58;28.23;;;11.30;99.90;;;;;;5032603;28;20056;-60
2022/04/22 11:40:49;;;;;;;37.13;26.60;;;11.20;99.90;;;;;;5031219;28;20485;-60
2022/04/22 11:43:15;;;;;;;35.85;26.02;;;11.10;99.90;;;;;;5050456;28;20033;-60
2022/04/22 11:45:43;;;;;;;38.25;26.33;;;11.20;99.90;;;;;;5030253;28;20036;-60
2022/04/22 11:48:09;;;;;;;32.10;23.67;;;11.30;99.90;;;;;;5050512;28;20068;-60
2022/04/22 11:50:43;;;;;;;35.10;24.70;;;11.50;99.90;;;;;;5037325;28;20056;-59
2022/04/22 11:53:20;;;;;;;32.67;24.00;;;11.80;99.90;;;;;;5050361;28;20057;-61
2022/04/22 11:55:48;;;;;;;32.47;25.55;;;12.20;99.90;;;;;;5030751;28;20030;-60
2022/04/22 11:58:16;;;;;;;33.75;21.65;;;12.60;99.90;;;;;;5050171;28;20025;-60
2022/04/22 12:06:16;;;;;;;28.98;20.65;;;13.30;99.90;;;;;;5034535;28;20044;-60
2022/04/22 12:08:51;;;;;;;29.50;22.42;;;13.60;99.90;;;;;;5050029;28;20025;-60
2022/04/22 12:11:16;;;;;;;28.13;19.88;;;13.40;99.90;;;;;;5034758;28;20068;-60
2022/04/22 12:13:42;;;;;;;29.58;17.98;;;13.60;99.90;;;;;;5049973;28;20025;-60
2022/04/22 12:16:07;;;;;;;27.77;19.00;;;13.80;96.50;;;;;;5033606;28;20109;-60
2022/04/22 12:18:37;;;;;;;25.05;17.95;;;13.80;92.80;;;;;;5050020;28;20017;-59
2022/04/22 12:21:06;;;;;;;24.45;17.88;;;14.10;91.10;;;;;;5032905;28;20037;-60
2022/04/22 12:23:33;;;;;;;23.25;16.83;;;14.10;89.00;;;;;;5049826;28;20040;-60
2022/04/22 12:26:00;;;;;;;23.90;17.73;;;14.20;83.30;;;;;;5031682;28;20416;-61
2022/04/22 12:28:26;;;;;;;23.80;15.90;;;14.30;81.30;;;;;;5049568;28;20059;-59
2022/04/22 12:30:52;;;;;;;21.42;15.88;;;14.40;77.10;;;;;;5030837;28;20469;-59
2022/04/22 12:33:23;;;;;;;21.95;16.10;;;14.50;73.50;;;;;;5049440;28;20135;-60
2022/04/22 12:35:49;;;;;;;22.70;15.32;;;14.30;72.40;;;;;;5030496;28;20068;-60
2022/04/22 12:38:15;;;;;;;18.55;14.10;;;14.40;71.50;;;;;;5049557;28;20147;-60
2022/04/22 12:40:46;;;;;;;18.73;12.88;;;14.50;65.10;;;;;;5029221;28;20029;-60
2022/04/22 12:43:29;;;;;;;17.95;11.77;;;14.60;64.70;;;;;;5049398;28;20021;-60
2022/04/22 12:52:15;;;;;;;16.35;11.77;;;15.40;61.10;;;;;;5039315;28;20059;-60
2022/04/22 12:54:42;;;;;;;18.17;12.85;;;15.30;59.20;;;;;;5009461;28;20429;-60
2022/04/22 12:57:22;;;;;;;16.25;11.75;;;14.60;60.70;;;;;;5033214;28;20493;-60
2022/04/22 12:59:55;;;;;;;14.13;11.75;;;14.10;65.70;;;;;;5009477;28;20030;-61
2022/04/22 13:02:29;;;;;;;18.65;14.35;;;13.80;72.20;;;;;;5020891;28;20026;-60
2022/04/22 13:05:00;;;;;;;15.63;12.27;;;13.40;75.70;;;;;;5048404;28;20048;-60
2022/04/22 13:07:38;;;;;;;20.98;14.45;;;13.20;80.20;;;;;;5023321;28;20049;-59
2022/04/22 13:10:04;;;;;;;19.40;14.15;;;13.00;83.80;;;;;;5009311;28;20513;-59
2022/04/22 13:12:30;;;;;;;21.45;14.13;;;12.80;88.70;;;;;;5029368;28;20042;-60
2022/04/22 13:14:56;;;;;;;24.65;15.43;;;12.70;90.20;;;;;;5030463;28;20033;-60
2022/04/22 13:17:26;;;;;;;19.58;13.63;;;12.60;91.20;;;;;;5027609;28;20025;-59
2022/04/22 13:19:52;;;;;;;17.42;12.80;;;12.70;91.30;;;;;;5009134;28;20037;-60
2022/04/22 13:22:18;;;;;;;22.38;13.63;;;12.70;92.00;;;;;;5030736;28;20021;-61
2022/04/22 13:24:44;;;;;;;19.63;14.73;;;12.80;90.80;;;;;;5048175;28;20388;-59
2022/04/22 13:27:12;;;;;;;19.88;14.25;;;12.90;90.10;;;;;;5027246;28;20044;-59
2022/04/22 13:29:37;;;;;;;19.40;14.15;;;13.00;90.00;;;;;;5047886;28;20036;-59
2022/04/22 13:32:03;;;;;;;17.67;13.02;;;13.20;85.80;;;;;;5027513;28;20049;-60
2022/04/22 13:34:28;;;;;;;16.88;11.52;;;13.40;79.20;;;;;;5047181;28;20025;-60
2022/04/22 13:36:54;;;;;;;18.30;12.07;;;13.70;75.20;;;;;;5027597;28;20052;-60
2022/04/22 13:39:20;;;;;;;16.30;11.23;;;13.90;73.60;;;;;;5047414;28;20120;-60
2022/04/22 13:41:45;;;;;;;15.50;11.45;;;14.10;71.90;;;;;;5036560;28;20029;-60
2022/04/22 13:44:10;;;;;;;15.15;10.93;;;14.40;68.90;;;;;;5029028;28;20508;-59
2022/04/22 13:52:24;;;;;;;13.38;10.30;;;14.50;67.30;;;;;;5046398;28;20087;-60
2022/04/22 13:54:49;;;;;;;12.88;9.70;;;14.70;65.30;;;;;;5008687;28;20088;-60